sensor_id;sensor_type;location;lat;lon;timestamp;P1;durP1;ratioP1;P2;durP2;ratioP2
819;SDS011;392;48.838;2.322;2023-09-30T00:02:03;5.00;;;3.43;;
819;SDS011;392;48.838;2.322;2023-09-30T00:04:31;6.77;;;3.30;;
819;SDS011;392;48.838;2.322;2023-09-30T00:06:58;6.03;;;4.20;;
819;SDS011;392;48.838;2.322;2023-09-30T00:09:26;7.83;;;3.27;;
819;SDS011;392;48.838;2.322;2023-09-30T00:11:53;4.43;;;2.80;;
819;SDS011;392;48.838;2.322;2023-09-30T00:14:21;7.53;;;3.30;;
819;SDS011;392;48.838;2.322;2023-09-30T00:16:49;6.10;;;2.87;;
819;SDS011;392;48.838;2.322;2023-09-30T00:19:17;5.30;;;2.90;;
819;SDS011;392;48.838;2.322;2023-09-30T00:21:44;4.90;;;3.00;;
819;SDS011;392;48.838;2.322;2023-09-30T00:24:11;4.90;;;3.07;;
819;SDS011;392;48.838;2.322;2023-09-30T00:26:39;3.80;;;3.07;;
819;SDS011;392;48.838;2.322;2023-09-30T00:29:07;4.77;;;3.30;;
819;SDS011;392;48.838;2.322;2023-09-30T00:31:35;7.30;;;3.53;;
819;SDS011;392;48.838;2.322;2023-09-30T00:34:04;6.13;;;2.70;;
819;SDS011;392;48.838;2.322;2023-09-30T00:36:31;7.43;;;2.83;;
819;SDS011;392;48.838;2.322;2023-09-30T00:38:59;6.83;;;3.77;;
819;SDS011;392;48.838;2.322;2023-09-30T00:41:26;4.07;;;2.57;;
819;SDS011;392;48.838;2.322;2023-09-30T00:43:53;3.87;;;2.70;;
819;SDS011;392;48.838;2.322;2023-09-30T00:46:23;4.87;;;3.10;;
819;SDS011;392;48.838;2.322;2023-09-30T00:48:53;7.17;;;3.60;;
819;SDS011;392;48.838;2.322;2023-09-30T00:51:24;4.27;;;2.43;;
819;SDS011;392;48.838;2.322;2023-09-30T00:53:53;5.10;;;3.53;;
819;SDS011;392;48.838;2.322;2023-09-30T00:56:24;6.97;;;3.70;;
819;SDS011;392;48.838;2.322;2023-09-30T00:58:54;4.57;;;2.90;;
819;SDS011;392;48.838;2.322;2023-09-30T01:01:22;8.90;;;3.50;;
819;SDS011;392;48.838;2.322;2023-09-30T01:03:50;8.83;;;5.20;;
819;SDS011;392;48.838;2.322;2023-09-30T01:06:18;6.33;;;3.17;;
819;SDS011;392;48.838;2.322;2023-09-30T01:08:48;9.80;;;4.30;;
819;SDS011;392;48.838;2.322;2023-09-30T01:11:16;7.47;;;3.67;;
819;SDS011;392;48.838;2.322;2023-09-30T01:13:43;4.60;;;3.63;;
819;SDS011;392;48.838;2.322;2023-09-30T01:16:12;6.17;;;3.30;;
819;SDS011;392;48.838;2.322;2023-09-30T01:18:40;4.33;;;3.10;;
819;SDS011;392;48.838;2.322;2023-09-30T01:21:08;7.20;;;2.60;;
819;SDS011;392;48.838;2.322;2023-09-30T01:23:39;7.90;;;3.73;;
819;SDS011;392;48.838;2.322;2023-09-30T01:26:07;7.97;;;3.90;;
819;SDS011;392;48.838;2.322;2023-09-30T01:28:37;7.47;;;3.23;;
819;SDS011;392;48.838;2.322;2023-09-30T01:31:05;9.03;;;3.23;;
819;SDS011;392;48.838;2.322;2023-09-30T01:33:34;5.90;;;3.43;;
819;SDS011;392;48.838;2.322;2023-09-30T01:36:02;5.63;;;3.10;;
819;SDS011;392;48.838;2.322;2023-09-30T01:38:30;4.17;;;3.03;;
819;SDS011;392;48.838;2.322;2023-09-30T01:40:59;6.93;;;3.13;;
819;SDS011;392;48.838;2.322;2023-09-30T01:43:26;5.13;;;2.90;;
819;SDS011;392;48.838;2.322;2023-09-30T01:45:55;4.13;;;2.70;;
819;SDS011;392;48.838;2.322;2023-09-30T01:48:23;6.40;;;3.27;;
819;SDS011;392;48.838;2.322;2023-09-30T01:50:51;8.47;;;3.20;;
819;SDS011;392;48.838;2.322;2023-09-30T01:53:18;5.43;;;3.10;;
819;SDS011;392;48.838;2.322;2023-09-30T01:55:45;7.07;;;2.77;;
819;SDS011;392;48.838;2.322;2023-09-30T01:58:14;6.83;;;3.93;;
819;SDS011;392;48.838;2.322;2023-09-30T02:00:43;5.50;;;2.80;;
819;SDS011;392;48.838;2.322;2023-09-30T02:03:10;4.43;;;2.57;;
819;SDS011;392;48.838;2.322;2023-09-30T02:05:38;4.57;;;3.00;;
819;SDS011;392;48.838;2.322;2023-09-30T02:08:05;7.07;;;3.03;;
819;SDS011;392;48.838;2.322;2023-09-30T02:10:33;6.07;;;3.10;;
819;SDS011;392;48.838;2.322;2023-09-30T02:13:00;5.10;;;3.00;;
819;SDS011;392;48.838;2.322;2023-09-30T02:15:32;3.87;;;2.37;;
819;SDS011;392;48.838;2.322;2023-09-30T02:17:59;8.53;;;3.27;;
819;SDS011;392;48.838;2.322;2023-09-30T02:20:29;4.97;;;3.10;;
819;SDS011;392;48.838;2.322;2023-09-30T02:22:57;3.70;;;2.40;;
819;SDS011;392;48.838;2.322;2023-09-30T02:25:27;4.80;;;3.10;;
819;SDS011;392;48.838;2.322;2023-09-30T02:27:55;8.60;;;3.90;;
819;SDS011;392;48.838;2.322;2023-09-30T02:30:23;4.50;;;3.03;;
819;SDS011;392;48.838;2.322;2023-09-30T02:32:52;5.73;;;2.97;;
819;SDS011;392;48.838;2.322;2023-09-30T02:35:21;5.33;;;2.57;;
819;SDS011;392;48.838;2.322;2023-09-30T02:37:48;5.37;;;3.67;;
819;SDS011;392;48.838;2.322;2023-09-30T02:40:17;6.57;;;3.30;;
819;SDS011;392;48.838;2.322;2023-09-30T02:42:45;4.63;;;2.30;;
819;SDS011;392;48.838;2.322;2023-09-30T02:45:14;5.17;;;3.13;;
819;SDS011;392;48.838;2.322;2023-09-30T02:47:44;5.50;;;3.30;;
819;SDS011;392;48.838;2.322;2023-09-30T02:50:13;6.00;;;3.20;;
819;SDS011;392;48.838;2.322;2023-09-30T02:52:40;5.60;;;2.80;;
819;SDS011;392;48.838;2.322;2023-09-30T02:55:08;5.30;;;2.80;;
819;SDS011;392;48.838;2.322;2023-09-30T02:57:36;5.60;;;2.93;;
819;SDS011;392;48.838;2.322;2023-09-30T03:00:05;5.83;;;3.17;;
819;SDS011;392;48.838;2.322;2023-09-30T03:02:46;5.63;;;2.60;;
819;SDS011;392;48.838;2.322;2023-09-30T03:05:15;6.20;;;2.50;;
819;SDS011;392;48.838;2.322;2023-09-30T03:07:42;6.60;;;2.90;;
819;SDS011;392;48.838;2.322;2023-09-30T03:10:09;5.20;;;3.00;;
819;SDS011;392;48.838;2.322;2023-09-30T03:12:38;4.10;;;3.13;;
819;SDS011;392;48.838;2.322;2023-09-30T03:15:05;5.73;;;3.43;;
819;SDS011;392;48.838;2.322;2023-09-30T03:17:34;5.60;;;3.53;;
819;SDS011;392;48.838;2.322;2023-09-30T03:20:03;4.30;;;2.67;;
819;SDS011;392;48.838;2.322;2023-09-30T03:22:39;6.60;;;3.87;;
819;SDS011;392;48.838;2.322;2023-09-30T03:25:07;5.70;;;3.70;;
819;SDS011;392;48.838;2.322;2023-09-30T03:27:37;4.50;;;2.83;;
819;SDS011;392;48.838;2.322;2023-09-30T03:30:06;7.30;;;3.50;;
819;SDS011;392;48.838;2.322;2023-09-30T03:32:38;5.37;;;4.20;;
819;SDS011;392;48.838;2.322;2023-09-30T03:35:05;6.50;;;4.20;;
819;SDS011;392;48.838;2.322;2023-09-30T03:37:36;5.67;;;4.57;;
819;SDS011;392;48.838;2.322;2023-09-30T03:40:05;6.40;;;4.10;;
819;SDS011;392;48.838;2.322;2023-09-30T03:42:40;4.77;;;4.00;;
819;SDS011;392;48.838;2.322;2023-09-30T03:45:09;6.50;;;4.17;;
819;SDS011;392;48.838;2.322;2023-09-30T03:47:37;6.30;;;4.20;;
819;SDS011;392;48.838;2.322;2023-09-30T03:50:07;9.83;;;4.50;;
819;SDS011;392;48.838;2.322;2023-09-30T03:52:39;6.70;;;4.17;;
819;SDS011;392;48.838;2.322;2023-09-30T03:55:11;5.43;;;4.30;;
819;SDS011;392;48.838;2.322;2023-09-30T03:57:39;4.50;;;3.70;;
819;SDS011;392;48.838;2.322;2023-09-30T04:00:07;6.90;;;4.30;;
819;SDS011;392;48.838;2.322;2023-09-30T04:02:41;8.60;;;4.60;;
819;SDS011;392;48.838;2.322;2023-09-30T04:05:09;4.93;;;4.40;;
819;SDS011;392;48.838;2.322;2023-09-30T04:07:39;5.57;;;4.10;;
819;SDS011;392;48.838;2.322;2023-09-30T04:10:07;5.47;;;4.53;;
819;SDS011;392;48.838;2.322;2023-09-30T04:12:37;5.73;;;4.03;;
819;SDS011;392;48.838;2.322;2023-09-30T04:15:05;4.80;;;4.30;;
819;SDS011;392;48.838;2.322;2023-09-30T04:17:37;6.07;;;4.10;;
819;SDS011;392;48.838;2.322;2023-09-30T04:20:05;5.63;;;3.60;;
819;SDS011;392;48.838;2.322;2023-09-30T04:22:36;5.60;;;4.40;;
819;SDS011;392;48.838;2.322;2023-09-30T04:25:04;7.50;;;4.60;;
819;SDS011;392;48.838;2.322;2023-09-30T04:27:37;4.70;;;3.73;;
819;SDS011;392;48.838;2.322;2023-09-30T04:30:05;5.47;;;4.63;;
819;SDS011;392;48.838;2.322;2023-09-30T04:32:36;6.50;;;4.20;;
819;SDS011;392;48.838;2.322;2023-09-30T04:35:04;4.77;;;4.17;;
819;SDS011;392;48.838;2.322;2023-09-30T04:37:33;5.40;;;4.30;;
819;SDS011;392;48.838;2.322;2023-09-30T04:40:01;4.80;;;3.90;;
819;SDS011;392;48.838;2.322;2023-09-30T04:42:32;7.43;;;4.27;;
819;SDS011;392;48.838;2.322;2023-09-30T04:45:03;7.30;;;4.47;;
819;SDS011;392;48.838;2.322;2023-09-30T04:47:32;8.53;;;4.80;;
819;SDS011;392;48.838;2.322;2023-09-30T04:50:00;6.93;;;4.83;;
819;SDS011;392;48.838;2.322;2023-09-30T04:52:30;7.13;;;3.80;;
819;SDS011;392;48.838;2.322;2023-09-30T04:54:57;4.10;;;3.30;;
819;SDS011;392;48.838;2.322;2023-09-30T04:57:25;4.60;;;4.10;;
819;SDS011;392;48.838;2.322;2023-09-30T04:59:53;6.70;;;4.10;;
819;SDS011;392;48.838;2.322;2023-09-30T05:02:22;6.80;;;3.80;;
819;SDS011;392;48.838;2.322;2023-09-30T05:04:51;7.03;;;4.27;;
819;SDS011;392;48.838;2.322;2023-09-30T05:07:19;5.17;;;3.17;;
819;SDS011;392;48.838;2.322;2023-09-30T05:09:46;5.60;;;3.50;;
819;SDS011;392;48.838;2.322;2023-09-30T05:12:14;7.07;;;4.30;;
819;SDS011;392;48.838;2.322;2023-09-30T05:14:41;4.80;;;4.30;;
819;SDS011;392;48.838;2.322;2023-09-30T05:17:09;7.73;;;4.10;;
819;SDS011;392;48.838;2.322;2023-09-30T05:19:38;5.90;;;3.70;;
819;SDS011;392;48.838;2.322;2023-09-30T05:22:05;6.37;;;4.10;;
819;SDS011;392;48.838;2.322;2023-09-30T05:24:32;7.97;;;4.60;;
819;SDS011;392;48.838;2.322;2023-09-30T05:27:00;7.17;;;3.30;;
819;SDS011;392;48.838;2.322;2023-09-30T05:29:28;7.50;;;3.77;;
819;SDS011;392;48.838;2.322;2023-09-30T05:31:58;10.20;;;4.40;;
819;SDS011;392;48.838;2.322;2023-09-30T05:34:26;9.63;;;3.97;;
819;SDS011;392;48.838;2.322;2023-09-30T05:36:55;6.67;;;3.73;;
819;SDS011;392;48.838;2.322;2023-09-30T05:39:23;3.70;;;3.07;;
819;SDS011;392;48.838;2.322;2023-09-30T05:41:51;7.70;;;3.07;;
819;SDS011;392;48.838;2.322;2023-09-30T05:44:19;7.10;;;4.30;;
819;SDS011;392;48.838;2.322;2023-09-30T05:46:47;4.83;;;2.80;;
819;SDS011;392;48.838;2.322;2023-09-30T05:49:15;7.50;;;3.30;;
819;SDS011;392;48.838;2.322;2023-09-30T05:51:44;5.43;;;3.27;;
819;SDS011;392;48.838;2.322;2023-09-30T05:54:14;4.53;;;2.70;;
819;SDS011;392;48.838;2.322;2023-09-30T05:56:41;6.33;;;3.50;;
819;SDS011;392;48.838;2.322;2023-09-30T05:59:08;5.60;;;3.07;;
819;SDS011;392;48.838;2.322;2023-09-30T06:01:37;8.00;;;3.20;;
819;SDS011;392;48.838;2.322;2023-09-30T06:04:05;7.40;;;3.50;;
819;SDS011;392;48.838;2.322;2023-09-30T06:06:32;4.70;;;3.30;;
819;SDS011;392;48.838;2.322;2023-09-30T06:08:59;5.23;;;3.53;;
819;SDS011;392;48.838;2.322;2023-09-30T06:11:28;9.90;;;3.60;;
819;SDS011;392;48.838;2.322;2023-09-30T06:13:55;5.60;;;3.57;;
819;SDS011;392;48.838;2.322;2023-09-30T06:16:24;7.17;;;3.10;;
819;SDS011;392;48.838;2.322;2023-09-30T06:18:52;5.53;;;3.27;;
819;SDS011;392;48.838;2.322;2023-09-30T06:21:19;5.80;;;2.80;;
819;SDS011;392;48.838;2.322;2023-09-30T06:23:47;5.40;;;2.97;;
819;SDS011;392;48.838;2.322;2023-09-30T06:26:17;6.77;;;3.20;;
819;SDS011;392;48.838;2.322;2023-09-30T06:28:47;8.07;;;3.50;;
819;SDS011;392;48.838;2.322;2023-09-30T06:31:14;7.43;;;2.87;;
819;SDS011;392;48.838;2.322;2023-09-30T06:33:42;5.23;;;3.27;;
819;SDS011;392;48.838;2.322;2023-09-30T06:36:09;6.87;;;3.07;;
819;SDS011;392;48.838;2.322;2023-09-30T06:38:39;6.30;;;3.27;;
819;SDS011;392;48.838;2.322;2023-09-30T06:41:07;5.30;;;3.60;;
819;SDS011;392;48.838;2.322;2023-09-30T06:43:34;7.37;;;3.17;;
819;SDS011;392;48.838;2.322;2023-09-30T06:46:06;6.43;;;3.33;;
819;SDS011;392;48.838;2.322;2023-09-30T06:48:34;7.47;;;3.83;;
819;SDS011;392;48.838;2.322;2023-09-30T06:51:02;7.90;;;3.20;;
819;SDS011;392;48.838;2.322;2023-09-30T06:53:29;5.27;;;3.33;;
819;SDS011;392;48.838;2.322;2023-09-30T06:55:57;6.43;;;3.23;;
819;SDS011;392;48.838;2.322;2023-09-30T06:58:24;5.87;;;3.63;;
819;SDS011;392;48.838;2.322;2023-09-30T07:00:51;5.60;;;3.60;;
819;SDS011;392;48.838;2.322;2023-09-30T07:03:21;5.20;;;3.23;;
819;SDS011;392;48.838;2.322;2023-09-30T07:05:48;5.87;;;3.10;;
819;SDS011;392;48.838;2.322;2023-09-30T07:08:16;4.60;;;3.33;;
819;SDS011;392;48.838;2.322;2023-09-30T07:10:44;5.70;;;3.17;;
819;SDS011;392;48.838;2.322;2023-09-30T07:13:14;7.33;;;3.43;;
819;SDS011;392;48.838;2.322;2023-09-30T07:15:41;6.30;;;3.77;;
819;SDS011;392;48.838;2.322;2023-09-30T07:18:08;11.00;;;3.53;;
819;SDS011;392;48.838;2.322;2023-09-30T07:20:38;7.90;;;3.93;;
819;SDS011;392;48.838;2.322;2023-09-30T07:23:06;5.17;;;4.10;;
819;SDS011;392;48.838;2.322;2023-09-30T07:25:34;11.93;;;4.47;;
819;SDS011;392;48.838;2.322;2023-09-30T07:28:02;4.23;;;2.80;;
819;SDS011;392;48.838;2.322;2023-09-30T07:30:30;7.90;;;3.53;;
819;SDS011;392;48.838;2.322;2023-09-30T07:32:57;9.83;;;4.50;;
819;SDS011;392;48.838;2.322;2023-09-30T07:35:24;7.10;;;4.10;;
819;SDS011;392;48.838;2.322;2023-09-30T07:37:53;12.23;;;5.03;;
819;SDS011;392;48.838;2.322;2023-09-30T07:40:20;10.93;;;5.10;;
819;SDS011;392;48.838;2.322;2023-09-30T07:42:47;9.73;;;5.20;;
819;SDS011;392;48.838;2.322;2023-09-30T07:45:15;8.60;;;4.70;;
819;SDS011;392;48.838;2.322;2023-09-30T07:47:43;10.03;;;5.07;;
819;SDS011;392;48.838;2.322;2023-09-30T07:50:11;7.30;;;4.97;;
819;SDS011;392;48.838;2.322;2023-09-30T07:52:39;8.07;;;5.23;;
819;SDS011;392;48.838;2.322;2023-09-30T07:55:09;7.93;;;5.00;;
819;SDS011;392;48.838;2.322;2023-09-30T07:57:36;9.40;;;4.93;;
819;SDS011;392;48.838;2.322;2023-09-30T08:00:07;7.00;;;4.60;;
819;SDS011;392;48.838;2.322;2023-09-30T08:02:40;9.20;;;4.60;;
819;SDS011;392;48.838;2.322;2023-09-30T08:05:08;7.37;;;5.43;;
819;SDS011;392;48.838;2.322;2023-09-30T08:07:37;6.90;;;4.23;;
819;SDS011;392;48.838;2.322;2023-09-30T08:10:05;7.80;;;4.13;;
819;SDS011;392;48.838;2.322;2023-09-30T08:12:39;6.60;;;3.03;;
819;SDS011;392;48.838;2.322;2023-09-30T08:15:07;4.60;;;2.87;;
819;SDS011;392;48.838;2.322;2023-09-30T08:17:37;6.83;;;2.80;;
819;SDS011;392;48.838;2.322;2023-09-30T08:20:04;7.30;;;3.50;;
819;SDS011;392;48.838;2.322;2023-09-30T08:22:33;4.10;;;2.70;;
819;SDS011;392;48.838;2.322;2023-09-30T08:25:01;5.40;;;3.13;;
819;SDS011;392;48.838;2.322;2023-09-30T08:27:31;8.73;;;4.23;;
819;SDS011;392;48.838;2.322;2023-09-30T08:29:59;7.60;;;4.50;;
819;SDS011;392;48.838;2.322;2023-09-30T08:32:31;9.63;;;4.10;;
819;SDS011;392;48.838;2.322;2023-09-30T08:34:59;7.17;;;4.40;;
819;SDS011;392;48.838;2.322;2023-09-30T08:37:28;6.97;;;4.40;;
819;SDS011;392;48.838;2.322;2023-09-30T08:39:56;11.03;;;4.10;;
819;SDS011;392;48.838;2.322;2023-09-30T08:42:23;5.20;;;3.80;;
819;SDS011;392;48.838;2.322;2023-09-30T08:44:58;5.50;;;3.97;;
819;SDS011;392;48.838;2.322;2023-09-30T08:47:27;7.77;;;4.10;;
819;SDS011;392;48.838;2.322;2023-09-30T08:49:56;8.03;;;3.93;;
819;SDS011;392;48.838;2.322;2023-09-30T08:52:31;4.90;;;3.70;;
819;SDS011;392;48.838;2.322;2023-09-30T08:54:59;6.23;;;3.83;;
819;SDS011;392;48.838;2.322;2023-09-30T08:57:28;6.73;;;4.43;;
819;SDS011;392;48.838;2.322;2023-09-30T08:59:56;8.53;;;4.03;;
819;SDS011;392;48.838;2.322;2023-09-30T09:02:28;5.40;;;3.63;;
819;SDS011;392;48.838;2.322;2023-09-30T09:04:55;4.17;;;3.63;;
819;SDS011;392;48.838;2.322;2023-09-30T09:07:25;5.80;;;3.37;;
819;SDS011;392;48.838;2.322;2023-09-30T09:10:05;7.63;;;3.47;;
819;SDS011;392;48.838;2.322;2023-09-30T09:12:34;5.20;;;3.30;;
819;SDS011;392;48.838;2.322;2023-09-30T09:15:06;5.67;;;3.43;;
819;SDS011;392;48.838;2.322;2023-09-30T09:17:42;4.87;;;3.43;;
819;SDS011;392;48.838;2.322;2023-09-30T09:20:16;5.60;;;3.67;;
819;SDS011;392;48.838;2.322;2023-09-30T09:22:46;5.60;;;3.90;;
819;SDS011;392;48.838;2.322;2023-09-30T09:25:16;4.93;;;4.00;;
819;SDS011;392;48.838;2.322;2023-09-30T09:27:43;7.70;;;4.23;;
819;SDS011;392;48.838;2.322;2023-09-30T09:30:15;11.20;;;5.63;;
819;SDS011;392;48.838;2.322;2023-09-30T09:32:54;6.77;;;3.33;;
819;SDS011;392;48.838;2.322;2023-09-30T09:35:25;7.17;;;3.70;;
819;SDS011;392;48.838;2.322;2023-09-30T09:37:57;7.90;;;4.30;;
819;SDS011;392;48.838;2.322;2023-09-30T09:40:26;7.80;;;4.70;;
819;SDS011;392;48.838;2.322;2023-09-30T09:42:54;5.83;;;4.40;;
819;SDS011;392;48.838;2.322;2023-09-30T09:45:24;6.23;;;4.50;;
819;SDS011;392;48.838;2.322;2023-09-30T09:47:54;6.67;;;4.70;;
819;SDS011;392;48.838;2.322;2023-09-30T09:50:22;6.10;;;4.63;;
819;SDS011;392;48.838;2.322;2023-09-30T09:52:50;7.70;;;5.97;;
819;SDS011;392;48.838;2.322;2023-09-30T09:55:20;10.13;;;4.70;;
819;SDS011;392;48.838;2.322;2023-09-30T09:57:50;5.20;;;4.27;;
819;SDS011;392;48.838;2.322;2023-09-30T10:00:18;5.90;;;5.30;;
819;SDS011;392;48.838;2.322;2023-09-30T10:02:50;7.47;;;4.67;;
819;SDS011;392;48.838;2.322;2023-09-30T10:05:19;5.30;;;4.80;;
819;SDS011;392;48.838;2.322;2023-09-30T10:07:50;5.57;;;4.37;;
819;SDS011;392;48.838;2.322;2023-09-30T10:10:22;5.03;;;4.30;;
819;SDS011;392;48.838;2.322;2023-09-30T10:12:51;5.83;;;4.60;;
819;SDS011;392;48.838;2.322;2023-09-30T10:15:34;6.53;;;4.67;;
819;SDS011;392;48.838;2.322;2023-09-30T10:18:09;8.70;;;4.60;;
819;SDS011;392;48.838;2.322;2023-09-30T10:20:38;6.37;;;5.67;;
819;SDS011;392;48.838;2.322;2023-09-30T10:23:18;6.37;;;4.50;;
819;SDS011;392;48.838;2.322;2023-09-30T10:25:47;5.40;;;4.90;;
819;SDS011;392;48.838;2.322;2023-09-30T10:28:31;5.73;;;5.20;;
819;SDS011;392;48.838;2.322;2023-09-30T10:31:13;7.50;;;5.40;;
819;SDS011;392;48.838;2.322;2023-09-30T10:36:49;7.47;;;5.50;;
819;SDS011;392;48.838;2.322;2023-09-30T10:51:16;6.73;;;5.10;;
819;SDS011;392;48.838;2.322;2023-09-30T10:53:47;6.03;;;5.30;;
819;SDS011;392;48.838;2.322;2023-09-30T10:56:16;7.80;;;5.53;;
819;SDS011;392;48.838;2.322;2023-09-30T10:58:45;9.27;;;6.50;;
819;SDS011;392;48.838;2.322;2023-09-30T11:01:15;10.47;;;6.70;;
819;SDS011;392;48.838;2.322;2023-09-30T11:03:45;9.60;;;7.10;;
819;SDS011;392;48.838;2.322;2023-09-30T11:06:14;9.10;;;8.30;;
819;SDS011;392;48.838;2.322;2023-09-30T11:08:46;11.20;;;10.00;;
819;SDS011;392;48.838;2.322;2023-09-30T11:11:18;9.73;;;8.73;;
819;SDS011;392;48.838;2.322;2023-09-30T11:13:46;9.07;;;8.17;;
819;SDS011;392;48.838;2.322;2023-09-30T11:16:13;9.33;;;8.60;;
819;SDS011;392;48.838;2.322;2023-09-30T11:18:40;10.37;;;9.53;;
819;SDS011;392;48.838;2.322;2023-09-30T11:21:08;11.13;;;10.03;;
819;SDS011;392;48.838;2.322;2023-09-30T11:23:39;10.40;;;9.20;;
819;SDS011;392;48.838;2.322;2023-09-30T11:26:07;7.83;;;7.13;;
819;SDS011;392;48.838;2.322;2023-09-30T11:28:35;9.33;;;8.07;;
819;SDS011;392;48.838;2.322;2023-09-30T11:31:07;8.90;;;7.77;;
819;SDS011;392;48.838;2.322;2023-09-30T11:33:53;7.73;;;6.90;;
819;SDS011;392;48.838;2.322;2023-09-30T11:36:23;9.03;;;8.17;;
819;SDS011;392;48.838;2.322;2023-09-30T11:38:53;12.37;;;9.00;;
819;SDS011;392;48.838;2.322;2023-09-30T11:41:20;7.70;;;7.00;;
819;SDS011;392;48.838;2.322;2023-09-30T11:43:58;9.17;;;7.40;;
819;SDS011;392;48.838;2.322;2023-09-30T11:46:27;8.13;;;7.33;;
819;SDS011;392;48.838;2.322;2023-09-30T11:48:58;7.00;;;6.30;;
819;SDS011;392;48.838;2.322;2023-09-30T11:51:27;9.17;;;8.00;;
819;SDS011;392;48.838;2.322;2023-09-30T11:53:57;9.70;;;8.77;;
819;SDS011;392;48.838;2.322;2023-09-30T11:56:28;8.10;;;6.80;;
819;SDS011;392;48.838;2.322;2023-09-30T11:58:55;8.80;;;7.33;;
819;SDS011;392;48.838;2.322;2023-09-30T12:01:24;9.43;;;8.53;;
819;SDS011;392;48.838;2.322;2023-09-30T12:03:52;10.83;;;9.83;;
819;SDS011;392;48.838;2.322;2023-09-30T12:06:21;11.07;;;10.07;;
819;SDS011;392;48.838;2.322;2023-09-30T12:08:49;11.20;;;10.40;;
819;SDS011;392;48.838;2.322;2023-09-30T12:11:19;13.10;;;12.20;;
819;SDS011;392;48.838;2.322;2023-09-30T12:13:49;15.57;;;14.47;;
819;SDS011;392;48.838;2.322;2023-09-30T12:16:16;15.20;;;14.27;;
819;SDS011;392;48.838;2.322;2023-09-30T12:18:44;14.00;;;13.10;;
819;SDS011;392;48.838;2.322;2023-09-30T12:21:12;16.20;;;15.00;;
819;SDS011;392;48.838;2.322;2023-09-30T12:23:45;15.43;;;14.50;;
819;SDS011;392;48.838;2.322;2023-09-30T12:26:14;13.93;;;13.03;;
819;SDS011;392;48.838;2.322;2023-09-30T12:28:46;16.17;;;14.50;;
819;SDS011;392;48.838;2.322;2023-09-30T12:31:14;13.00;;;12.00;;
819;SDS011;392;48.838;2.322;2023-09-30T12:33:41;15.10;;;14.20;;
819;SDS011;392;48.838;2.322;2023-09-30T12:36:08;15.17;;;14.17;;
819;SDS011;392;48.838;2.322;2023-09-30T12:38:38;13.30;;;12.30;;
819;SDS011;392;48.838;2.322;2023-09-30T12:41:05;14.17;;;12.97;;
819;SDS011;392;48.838;2.322;2023-09-30T12:43:33;12.70;;;11.70;;
819;SDS011;392;48.838;2.322;2023-09-30T12:46:02;12.70;;;11.80;;
819;SDS011;392;48.838;2.322;2023-09-30T12:48:31;12.67;;;11.83;;
819;SDS011;392;48.838;2.322;2023-09-30T12:50:59;12.20;;;11.30;;
819;SDS011;392;48.838;2.322;2023-09-30T12:53:29;12.03;;;11.23;;
819;SDS011;392;48.838;2.322;2023-09-30T12:55:57;10.57;;;9.83;;
819;SDS011;392;48.838;2.322;2023-09-30T12:58:25;10.70;;;10.00;;
819;SDS011;392;48.838;2.322;2023-09-30T13:00:53;10.60;;;9.90;;
819;SDS011;392;48.838;2.322;2023-09-30T13:03:21;9.37;;;8.77;;
819;SDS011;392;48.838;2.322;2023-09-30T13:05:49;9.83;;;9.20;;
819;SDS011;392;48.838;2.322;2023-09-30T13:08:16;10.70;;;9.90;;
819;SDS011;392;48.838;2.322;2023-09-30T13:10:44;11.30;;;10.47;;
819;SDS011;392;48.838;2.322;2023-09-30T13:13:15;9.43;;;8.73;;
819;SDS011;392;48.838;2.322;2023-09-30T13:15:43;10.70;;;9.80;;
819;SDS011;392;48.838;2.322;2023-09-30T13:18:10;9.27;;;8.47;;
819;SDS011;392;48.838;2.322;2023-09-30T13:20:39;9.37;;;8.47;;
819;SDS011;392;48.838;2.322;2023-09-30T13:23:07;9.43;;;8.63;;
819;SDS011;392;48.838;2.322;2023-09-30T13:25:34;11.13;;;10.20;;
819;SDS011;392;48.838;2.322;2023-09-30T13:28:01;10.17;;;9.33;;
819;SDS011;392;48.838;2.322;2023-09-30T13:30:29;9.80;;;8.90;;
819;SDS011;392;48.838;2.322;2023-09-30T13:32:57;9.47;;;8.50;;
819;SDS011;392;48.838;2.322;2023-09-30T13:35:25;9.00;;;8.20;;
819;SDS011;392;48.838;2.322;2023-09-30T13:37:53;9.17;;;8.23;;
819;SDS011;392;48.838;2.322;2023-09-30T13:40:20;9.83;;;8.93;;
819;SDS011;392;48.838;2.322;2023-09-30T13:42:48;8.90;;;8.00;;
819;SDS011;392;48.838;2.322;2023-09-30T13:45:16;7.23;;;6.63;;
819;SDS011;392;48.838;2.322;2023-09-30T13:47:44;8.03;;;7.30;;
819;SDS011;392;48.838;2.322;2023-09-30T13:50:11;9.03;;;8.23;;
819;SDS011;392;48.838;2.322;2023-09-30T13:52:39;8.07;;;7.37;;
819;SDS011;392;48.838;2.322;2023-09-30T13:55:08;7.47;;;6.77;;
819;SDS011;392;48.838;2.322;2023-09-30T13:57:35;9.60;;;7.40;;
819;SDS011;392;48.838;2.322;2023-09-30T14:00:03;9.23;;;7.30;;
819;SDS011;392;48.838;2.322;2023-09-30T14:02:32;7.90;;;7.20;;
819;SDS011;392;48.838;2.322;2023-09-30T14:05:01;8.77;;;6.57;;
819;SDS011;392;48.838;2.322;2023-09-30T14:07:29;9.50;;;6.57;;
819;SDS011;392;48.838;2.322;2023-09-30T14:09:57;7.93;;;6.77;;
819;SDS011;392;48.838;2.322;2023-09-30T14:12:25;8.53;;;6.40;;
819;SDS011;392;48.838;2.322;2023-09-30T14:14:53;8.70;;;6.40;;
819;SDS011;392;48.838;2.322;2023-09-30T14:17:20;6.80;;;5.90;;
819;SDS011;392;48.838;2.322;2023-09-30T14:19:47;7.70;;;6.40;;
819;SDS011;392;48.838;2.322;2023-09-30T14:22:15;7.80;;;6.20;;
819;SDS011;392;48.838;2.322;2023-09-30T14:24:43;8.13;;;6.50;;
819;SDS011;392;48.838;2.322;2023-09-30T14:27:10;6.83;;;5.93;;
819;SDS011;392;48.838;2.322;2023-09-30T14:29:40;7.77;;;6.97;;
819;SDS011;392;48.838;2.322;2023-09-30T14:32:08;7.33;;;6.20;;
819;SDS011;392;48.838;2.322;2023-09-30T14:34:36;7.27;;;6.57;;
819;SDS011;392;48.838;2.322;2023-09-30T14:37:03;7.90;;;7.10;;
819;SDS011;392;48.838;2.322;2023-09-30T14:39:30;7.80;;;6.80;;
819;SDS011;392;48.838;2.322;2023-09-30T14:41:58;7.57;;;6.23;;
819;SDS011;392;48.838;2.322;2023-09-30T14:44:25;7.53;;;6.03;;
819;SDS011;392;48.838;2.322;2023-09-30T14:46:54;12.70;;;7.77;;
819;SDS011;392;48.838;2.322;2023-09-30T14:49:22;7.37;;;6.67;;
819;SDS011;392;48.838;2.322;2023-09-30T14:51:50;7.50;;;6.40;;
819;SDS011;392;48.838;2.322;2023-09-30T14:54:17;8.00;;;6.57;;
819;SDS011;392;48.838;2.322;2023-09-30T14:56:44;8.13;;;6.83;;
819;SDS011;392;48.838;2.322;2023-09-30T14:59:12;8.03;;;6.40;;
819;SDS011;392;48.838;2.322;2023-09-30T15:01:39;7.63;;;6.13;;
819;SDS011;392;48.838;2.322;2023-09-30T15:04:08;7.90;;;6.10;;
819;SDS011;392;48.838;2.322;2023-09-30T15:06:35;7.67;;;6.13;;
819;SDS011;392;48.838;2.322;2023-09-30T15:09:02;7.83;;;6.20;;
819;SDS011;392;48.838;2.322;2023-09-30T15:11:30;5.80;;;5.23;;
819;SDS011;392;48.838;2.322;2023-09-30T15:13:57;6.10;;;5.33;;
819;SDS011;392;48.838;2.322;2023-09-30T15:16:25;7.30;;;6.33;;
819;SDS011;392;48.838;2.322;2023-09-30T15:18:52;6.07;;;5.40;;
819;SDS011;392;48.838;2.322;2023-09-30T15:21:21;7.37;;;6.07;;
819;SDS011;392;48.838;2.322;2023-09-30T15:23:49;7.23;;;6.07;;
819;SDS011;392;48.838;2.322;2023-09-30T15:26:17;7.87;;;6.03;;
819;SDS011;392;48.838;2.322;2023-09-30T15:28:45;5.93;;;5.30;;
819;SDS011;392;48.838;2.322;2023-09-30T15:31:12;9.33;;;6.90;;
819;SDS011;392;48.838;2.322;2023-09-30T15:33:40;10.17;;;6.37;;
819;SDS011;392;48.838;2.322;2023-09-30T15:36:09;8.67;;;7.80;;
819;SDS011;392;48.838;2.322;2023-09-30T15:38:38;8.83;;;7.30;;
819;SDS011;392;48.838;2.322;2023-09-30T15:41:05;8.27;;;6.50;;
819;SDS011;392;48.838;2.322;2023-09-30T15:43:32;7.90;;;6.97;;
819;SDS011;392;48.838;2.322;2023-09-30T15:46:00;8.40;;;6.20;;
819;SDS011;392;48.838;2.322;2023-09-30T15:48:28;10.67;;;6.83;;
819;SDS011;392;48.838;2.322;2023-09-30T15:50:56;7.83;;;6.07;;
819;SDS011;392;48.838;2.322;2023-09-30T15:53:23;8.73;;;6.23;;
819;SDS011;392;48.838;2.322;2023-09-30T15:55:52;10.17;;;7.07;;
819;SDS011;392;48.838;2.322;2023-09-30T15:58:19;11.40;;;6.90;;
819;SDS011;392;48.838;2.322;2023-09-30T16:00:46;9.73;;;7.00;;
819;SDS011;392;48.838;2.322;2023-09-30T16:03:14;7.93;;;5.90;;
819;SDS011;392;48.838;2.322;2023-09-30T16:05:41;8.33;;;6.57;;
819;SDS011;392;48.838;2.322;2023-09-30T16:08:09;8.17;;;6.50;;